sensor_id;sensor_type;location;lat;lon;timestamp;temperature;humidity
17587;DHT22;8912;52.336;17.172;2022-09-21T00:01:38;7.50;99.90
17587;DHT22;8912;52.336;17.172;2022-09-21T00:04:06;7.50;99.90
17587;DHT22;8912;52.336;17.172;2022-09-21T00:06:36;7.50;99.90
17587;DHT22;8912;52.336;17.172;2022-09-21T00:09:05;7.50;99.90
17587;DHT22;8912;52.336;17.172;2022-09-21T00:11:35;7.60;99.90
17587;DHT22;8912;52.336;17.172;2022-09-21T00:14:06;7.60;99.90
17587;DHT22;8912;52.336;17.172;2022-09-21T00:16:37;7.70;99.90
17587;DHT22;8912;52.336;17.172;2022-09-21T00:19:06;7.80;99.90
17587;DHT22;8912;52.336;17.172;2022-09-21T00:21:37;7.80;99.90
17587;DHT22;8912;52.336;17.172;2022-09-21T00:24:06;8.00;99.90
17587;DHT22;8912;52.336;17.172;2022-09-21T00:26:35;8.00;99.90
17587;DHT22;8912;52.336;17.172;2022-09-21T00:29:04;8.10;99.90
17587;DHT22;8912;52.336;17.172;2022-09-21T00:31:33;8.10;99.90
17587;DHT22;8912;52.336;17.172;2022-09-21T00:34:02;8.20;99.90
17587;DHT22;8912;52.336;17.172;2022-09-21T00:36:34;8.20;99.90
17587;DHT22;8912;52.336;17.172;2022-09-21T00:39:03;8.20;99.90
17587;DHT22;8912;52.336;17.172;2022-09-21T00:41:33;8.20;99.90
17587;DHT22;8912;52.336;17.172;2022-09-21T00:44:22;8.30;99.90
17587;DHT22;8912;52.336;17.172;2022-09-21T00:46:53;8.40;99.90
17587;DHT22;8912;52.336;17.172;2022-09-21T00:49:24;8.40;99.90
17587;DHT22;8912;52.336;17.172;2022-09-21T00:51:55;8.40;99.90
17587;DHT22;8912;52.336;17.172;2022-09-21T00:54:30;8.40;99.90
17587;DHT22;8912;52.336;17.172;2022-09-21T00:57:00;8.50;99.90
17587;DHT22;8912;52.336;17.172;2022-09-21T00:59:30;8.50;99.90
17587;DHT22;8912;52.336;17.172;2022-09-21T01:02:00;8.50;99.90
17587;DHT22;8912;52.336;17.172;2022-09-21T01:04:29;8.50;99.90
17587;DHT22;8912;52.336;17.172;2022-09-21T01:07:00;8.60;99.90
17587;DHT22;8912;52.336;17.172;2022-09-21T01:09:31;8.70;99.90
17587;DHT22;8912;52.336;17.172;2022-09-21T01:12:10;8.70;99.90
17587;DHT22;8912;52.336;17.172;2022-09-21T01:14:52;8.70;99.90
17587;DHT22;8912;52.336;17.172;2022-09-21T01:17:29;8.70;99.90
17587;DHT22;8912;52.336;17.172;2022-09-21T01:20:29;8.80;99.90
17587;DHT22;8912;52.336;17.172;2022-09-21T01:23:15;8.80;99.90
17587;DHT22;8912;52.336;17.172;2022-09-21T01:26:00;8.90;99.90
17587;DHT22;8912;52.336;17.172;2022-09-21T01:28:47;8.90;99.90
17587;DHT22;8912;52.336;17.172;2022-09-21T01:31:22;8.90;99.90
17587;DHT22;8912;52.336;17.172;2022-09-21T01:33:56;8.90;99.90
17587;DHT22;8912;52.336;17.172;2022-09-21T01:36:27;9.00;99.90
17587;DHT22;8912;52.336;17.172;2022-09-21T01:39:02;9.00;99.90
17587;DHT22;8912;52.336;17.172;2022-09-21T01:41:34;8.90;99.90
17587;DHT22;8912;52.336;17.172;2022-09-21T01:44:09;9.00;99.90
17587;DHT22;8912;52.336;17.172;2022-09-21T01:46:39;8.90;99.90
17587;DHT22;8912;52.336;17.172;2022-09-21T01:49:12;9.00;99.90
17587;DHT22;8912;52.336;17.172;2022-09-21T01:51:45;9.00;99.90
17587;DHT22;8912;52.336;17.172;2022-09-21T01:54:19;9.00;99.90
17587;DHT22;8912;52.336;17.172;2022-09-21T01:56:53;9.10;99.90
17587;DHT22;8912;52.336;17.172;2022-09-21T01:59:27;9.10;99.90
17587;DHT22;8912;52.336;17.172;2022-09-21T02:02:01;9.20;99.90
17587;DHT22;8912;52.336;17.172;2022-09-21T02:04:33;9.20;99.90
17587;DHT22;8912;52.336;17.172;2022-09-21T02:07:02;9.20;99.90
17587;DHT22;8912;52.336;17.172;2022-09-21T02:09:32;9.20;99.90
17587;DHT22;8912;52.336;17.172;2022-09-21T02:12:00;9.30;99.90
17587;DHT22;8912;52.336;17.172;2022-09-21T02:14:32;9.30;99.90
17587;DHT22;8912;52.336;17.172;2022-09-21T02:17:09;9.40;99.90
17587;DHT22;8912;52.336;17.172;2022-09-21T02:19:45;9.40;99.90
17587;DHT22;8912;52.336;17.172;2022-09-21T02:22:21;9.40;99.90
17587;DHT22;8912;52.336;17.172;2022-09-21T02:25:01;9.40;99.90
17587;DHT22;8912;52.336;17.172;2022-09-21T02:27:34;9.40;99.90
17587;DHT22;8912;52.336;17.172;2022-09-21T02:30:10;9.40;99.90
17587;DHT22;8912;52.336;17.172;2022-09-21T02:32:44;9.50;99.90
17587;DHT22;8912;52.336;17.172;2022-09-21T02:35:24;9.50;99.90
17587;DHT22;8912;52.336;17.172;2022-09-21T02:38:02;9.50;99.90
17587;DHT22;8912;52.336;17.172;2022-09-21T02:40:35;9.50;99.90
17587;DHT22;8912;52.336;17.172;2022-09-21T02:43:11;9.50;99.90
17587;DHT22;8912;52.336;17.172;2022-09-21T02:45:49;9.50;99.90
17587;DHT22;8912;52.336;17.172;2022-09-21T02:48:22;9.50;99.90
17587;DHT22;8912;52.336;17.172;2022-09-21T02:50:53;9.50;99.90
17587;DHT22;8912;52.336;17.172;2022-09-21T02:53:27;9.60;99.90
17587;DHT22;8912;52.336;17.172;2022-09-21T02:55:58;9.50;99.90
17587;DHT22;8912;52.336;17.172;2022-09-21T02:58:30;9.50;99.90
17587;DHT22;8912;52.336;17.172;2022-09-21T03:01:01;9.50;99.90
17587;DHT22;8912;52.336;17.172;2022-09-21T03:03:30;9.50;99.90
17587;DHT22;8912;52.336;17.172;2022-09-21T03:05:59;9.50;99.90
17587;DHT22;8912;52.336;17.172;2022-09-21T03:08:28;9.50;99.90
17587;DHT22;8912;52.336;17.172;2022-09-21T03:10:57;9.50;99.90
17587;DHT22;8912;52.336;17.172;2022-09-21T03:13:26;9.50;99.90
17587;DHT22;8912;52.336;17.172;2022-09-21T03:15:59;9.50;99.90
17587;DHT22;8912;52.336;17.172;2022-09-21T03:18:30;9.50;99.90
17587;DHT22;8912;52.336;17.172;2022-09-21T03:20:59;9.40;99.90
17587;DHT22;8912;52.336;17.172;2022-09-21T03:23:28;9.40;99.90
17587;DHT22;8912;52.336;17.172;2022-09-21T03:25:57;9.50;99.90
17587;DHT22;8912;52.336;17.172;2022-09-21T03:28:25;9.50;99.90
17587;DHT22;8912;52.336;17.172;2022-09-21T03:30:54;9.50;99.90
17587;DHT22;8912;52.336;17.172;2022-09-21T03:33:23;9.50;99.90
17587;DHT22;8912;52.336;17.172;2022-09-21T03:35:53;9.50;99.90
17587;DHT22;8912;52.336;17.172;2022-09-21T03:38:22;9.40;99.90
17587;DHT22;8912;52.336;17.172;2022-09-21T03:40:52;9.40;99.90
17587;DHT22;8912;52.336;17.172;2022-09-21T03:43:24;9.50;99.90
17587;DHT22;8912;52.336;17.172;2022-09-21T03:45:53;9.50;99.90
17587;DHT22;8912;52.336;17.172;2022-09-21T03:48:22;9.50;99.90
17587;DHT22;8912;52.336;17.172;2022-09-21T03:50:52;9.50;99.90
17587;DHT22;8912;52.336;17.172;2022-09-21T03:53:21;9.50;99.90
17587;DHT22;8912;52.336;17.172;2022-09-21T03:55:49;9.50;99.90
17587;DHT22;8912;52.336;17.172;2022-09-21T03:58:18;9.50;99.90
17587;DHT22;8912;52.336;17.172;2022-09-21T04:00:46;9.50;99.90
17587;DHT22;8912;52.336;17.172;2022-09-21T04:03:15;9.50;99.90
17587;DHT22;8912;52.336;17.172;2022-09-21T04:05:43;9.50;99.90
17587;DHT22;8912;52.336;17.172;2022-09-21T04:08:13;9.50;99.90
17587;DHT22;8912;52.336;17.172;2022-09-21T04:10:42;9.50;99.90
17587;DHT22;8912;52.336;17.172;2022-09-21T04:13:10;9.40;99.90
17587;DHT22;8912;52.336;17.172;2022-09-21T04:15:39;9.40;99.90
17587;DHT22;8912;52.336;17.172;2022-09-21T04:18:08;9.40;99.90
17587;DHT22;8912;52.336;17.172;2022-09-21T04:20:36;9.40;99.90
17587;DHT22;8912;52.336;17.172;2022-09-21T04:23:05;9.40;99.90
17587;DHT22;8912;52.336;17.172;2022-09-21T04:25:37;9.40;99.90
17587;DHT22;8912;52.336;17.172;2022-09-21T04:28:06;9.40;99.90
17587;DHT22;8912;52.336;17.172;2022-09-21T04:30:34;9.30;99.90
17587;DHT22;8912;52.336;17.172;2022-09-21T04:33:04;9.30;99.90
17587;DHT22;8912;52.336;17.172;2022-09-21T04:35:32;9.30;99.90
17587;DHT22;8912;52.336;17.172;2022-09-21T04:38:01;9.30;99.90
17587;DHT22;8912;52.336;17.172;2022-09-21T04:40:30;9.30;99.90
17587;DHT22;8912;52.336;17.172;2022-09-21T04:43:00;9.20;99.90
17587;DHT22;8912;52.336;17.172;2022-09-21T04:45:28;9.20;99.90
17587;DHT22;8912;52.336;17.172;2022-09-21T04:47:58;9.30;99.90
17587;DHT22;8912;52.336;17.172;2022-09-21T04:50:26;9.30;99.90
17587;DHT22;8912;52.336;17.172;2022-09-21T04:53:02;9.30;99.90
17587;DHT22;8912;52.336;17.172;2022-09-21T04:55:32;9.40;99.90
17587;DHT22;8912;52.336;17.172;2022-09-21T04:58:01;9.50;99.90
17587;DHT22;8912;52.336;17.172;2022-09-21T05:00:30;9.40;99.90
17587;DHT22;8912;52.336;17.172;2022-09-21T05:02:59;9.40;99.90
17587;DHT22;8912;52.336;17.172;2022-09-21T05:05:27;9.40;99.90
17587;DHT22;8912;52.336;17.172;2022-09-21T05:07:56;9.50;99.90
17587;DHT22;8912;52.336;17.172;2022-09-21T05:10:24;9.60;99.90
17587;DHT22;8912;52.336;17.172;2022-09-21T05:12:52;9.60;99.90
17587;DHT22;8912;52.336;17.172;2022-09-21T05:15:22;9.60;99.90
17587;DHT22;8912;52.336;17.172;2022-09-21T05:17:51;9.50;99.90
17587;DHT22;8912;52.336;17.172;2022-09-21T05:20:20;9.60;99.90
17587;DHT22;8912;52.336;17.172;2022-09-21T05:22:48;9.60;99.90
17587;DHT22;8912;52.336;17.172;2022-09-21T05:25:17;9.70;99.90
17587;DHT22;8912;52.336;17.172;2022-09-21T05:27:45;9.70;99.90
17587;DHT22;8912;52.336;17.172;2022-09-21T05:30:15;9.60;99.90
17587;DHT22;8912;52.336;17.172;2022-09-21T05:32:48;9.70;99.90
17587;DHT22;8912;52.336;17.172;2022-09-21T05:35:26;9.70;99.90
17587;DHT22;8912;52.336;17.172;2022-09-21T05:38:00;9.80;99.90
17587;DHT22;8912;52.336;17.172;2022-09-21T05:40:31;9.80;99.90
17587;DHT22;8912;52.336;17.172;2022-09-21T05:43:00;9.70;99.90
17587;DHT22;8912;52.336;17.172;2022-09-21T05:45:29;9.70;99.90
17587;DHT22;8912;52.336;17.172;2022-09-21T05:48:12;9.80;99.90
17587;DHT22;8912;52.336;17.172;2022-09-21T05:50:52;9.80;99.90
17587;DHT22;8912;52.336;17.172;2022-09-21T05:53:33;9.80;99.90
17587;DHT22;8912;52.336;17.172;2022-09-21T05:56:10;9.90;99.90
17587;DHT22;8912;52.336;17.172;2022-09-21T05:58:45;9.90;99.90
17587;DHT22;8912;52.336;17.172;2022-09-21T06:01:31;10.00;99.90
17587;DHT22;8912;52.336;17.172;2022-09-21T06:04:07;10.10;99.90
17587;DHT22;8912;52.336;17.172;2022-09-21T06:06:37;10.10;99.90
17587;DHT22;8912;52.336;17.172;2022-09-21T06:09:06;10.20;99.90
17587;DHT22;8912;52.336;17.172;2022-09-21T06:11:36;10.30;99.90
17587;DHT22;8912;52.336;17.172;2022-09-21T06:14:04;10.30;99.90
17587;DHT22;8912;52.336;17.172;2022-09-21T06:16:37;10.40;99.90
17587;DHT22;8912;52.336;17.172;2022-09-21T06:19:09;10.40;99.90
17587;DHT22;8912;52.336;17.172;2022-09-21T06:21:39;10.50;99.90
17587;DHT22;8912;52.336;17.172;2022-09-21T06:24:08;10.50;99.90
17587;DHT22;8912;52.336;17.172;2022-09-21T06:26:38;10.60;99.90
17587;DHT22;8912;52.336;17.172;2022-09-21T06:29:06;10.60;99.90
17587;DHT22;8912;52.336;17.172;2022-09-21T06:31:35;10.60;99.90
17587;DHT22;8912;52.336;17.172;2022-09-21T06:34:04;10.60;99.90
17587;DHT22;8912;52.336;17.172;2022-09-21T06:36:34;10.70;99.90
17587;DHT22;8912;52.336;17.172;2022-09-21T06:39:03;10.70;99.90
17587;DHT22;8912;52.336;17.172;2022-09-21T06:41:32;10.70;99.90
17587;DHT22;8912;52.336;17.172;2022-09-21T06:44:01;10.80;99.90
17587;DHT22;8912;52.336;17.172;2022-09-21T06:46:30;10.90;99.90
17587;DHT22;8912;52.336;17.172;2022-09-21T06:48:58;11.10;99.90
17587;DHT22;8912;52.336;17.172;2022-09-21T06:51:27;11.20;99.90
17587;DHT22;8912;52.336;17.172;2022-09-21T06:53:57;11.40;99.90
17587;DHT22;8912;52.336;17.172;2022-09-21T06:56:27;11.40;99.90
17587;DHT22;8912;52.336;17.172;2022-09-21T06:58:56;11.50;99.90
17587;DHT22;8912;52.336;17.172;2022-09-21T07:01:26;11.50;99.90
17587;DHT22;8912;52.336;17.172;2022-09-21T07:03:55;11.50;99.90
17587;DHT22;8912;52.336;17.172;2022-09-21T07:06:24;11.50;99.90
17587;DHT22;8912;52.336;17.172;2022-09-21T07:08:52;11.60;99.90
17587;DHT22;8912;52.336;17.172;2022-09-21T07:11:42;11.60;99.90
17587;DHT22;8912;52.336;17.172;2022-09-21T07:14:11;11.70;99.90
17587;DHT22;8912;52.336;17.172;2022-09-21T07:16:40;11.70;99.90
17587;DHT22;8912;52.336;17.172;2022-09-21T07:19:09;11.70;99.90
17587;DHT22;8912;52.336;17.172;2022-09-21T07:21:38;11.80;99.90
17587;DHT22;8912;52.336;17.172;2022-09-21T07:24:07;11.80;99.90
17587;DHT22;8912;52.336;17.172;2022-09-21T07:26:38;11.80;99.90
17587;DHT22;8912;52.336;17.172;2022-09-21T07:29:09;11.90;99.90
17587;DHT22;8912;52.336;17.172;2022-09-21T07:31:37;11.80;99.90
17587;DHT22;8912;52.336;17.172;2022-09-21T07:34:06;11.80;99.90
17587;DHT22;8912;52.336;17.172;2022-09-21T07:36:35;11.70;99.90
17587;DHT22;8912;52.336;17.172;2022-09-21T07:39:04;11.70;99.90
17587;DHT22;8912;52.336;17.172;2022-09-21T07:41:32;11.70;99.90
17587;DHT22;8912;52.336;17.172;2022-09-21T07:44:01;11.80;99.90
17587;DHT22;8912;52.336;17.172;2022-09-21T07:46:32;11.90;99.90
17587;DHT22;8912;52.336;17.172;2022-09-21T07:49:02;12.20;99.90
17587;DHT22;8912;52.336;17.172;2022-09-21T07:51:32;12.40;99.90
17587;DHT22;8912;52.336;17.172;2022-09-21T07:54:00;12.60;99.90
17587;DHT22;8912;52.336;17.172;2022-09-21T07:56:31;12.80;99.90
17587;DHT22;8912;52.336;17.172;2022-09-21T07:59:00;12.90;99.90
17587;DHT22;8912;52.336;17.172;2022-09-21T08:01:37;12.90;99.90
17587;DHT22;8912;52.336;17.172;2022-09-21T08:04:08;12.80;99.90
17587;DHT22;8912;52.336;17.172;2022-09-21T08:06:37;12.70;99.90
17587;DHT22;8912;52.336;17.172;2022-09-21T08:09:07;12.60;99.90
17587;DHT22;8912;52.336;17.172;2022-09-21T08:11:35;12.60;99.90
17587;DHT22;8912;52.336;17.172;2022-09-21T08:14:05;12.70;99.90
17587;DHT22;8912;52.336;17.172;2022-09-21T08:16:37;12.90;99.90
17587;DHT22;8912;52.336;17.172;2022-09-21T08:19:06;13.20;99.90
17587;DHT22;8912;52.336;17.172;2022-09-21T08:21:35;13.50;99.90
17587;DHT22;8912;52.336;17.172;2022-09-21T08:24:04;13.60;99.90
17587;DHT22;8912;52.336;17.172;2022-09-21T08:26:32;13.70;99.90
17587;DHT22;8912;52.336;17.172;2022-09-21T08:29:02;13.90;99.90
17587;DHT22;8912;52.336;17.172;2022-09-21T08:31:31;14.10;99.90
17587;DHT22;8912;52.336;17.172;2022-09-21T08:34:01;14.50;99.90
17587;DHT22;8912;52.336;17.172;2022-09-21T08:36:30;14.90;99.90
17587;DHT22;8912;52.336;17.172;2022-09-21T08:38:59;15.00;99.90
17587;DHT22;8912;52.336;17.172;2022-09-21T08:41:42;14.80;99.90
17587;DHT22;8912;52.336;17.172;2022-09-21T08:44:18;14.50;99.90
17587;DHT22;8912;52.336;17.172;2022-09-21T08:46:57;14.40;99.90
17587;DHT22;8912;52.336;17.172;2022-09-21T08:49:32;14.30;99.90
17587;DHT22;8912;52.336;17.172;2022-09-21T08:52:06;14.40;99.90
17587;DHT22;8912;52.336;17.172;2022-09-21T08:54:44;14.70;99.90
17587;DHT22;8912;52.336;17.172;2022-09-21T08:57:15;14.70;99.90
17587;DHT22;8912;52.336;17.172;2022-09-21T08:59:46;14.50;99.90
17587;DHT22;8912;52.336;17.172;2022-09-21T09:02:37;14.70;99.90
17587;DHT22;8912;52.336;17.172;2022-09-21T09:05:23;15.10;99.90
17587;DHT22;8912;52.336;17.172;2022-09-21T09:08:10;15.50;99.90
17587;DHT22;8912;52.336;17.172;2022-09-21T09:10:55;15.40;99.90
17587;DHT22;8912;52.336;17.172;2022-09-21T09:13:37;15.50;99.90
17587;DHT22;8912;52.336;17.172;2022-09-21T09:16:17;15.40;99.90
17587;DHT22;8912;52.336;17.172;2022-09-21T09:18:51;15.40;99.90
17587;DHT22;8912;52.336;17.172;2022-09-21T09:21:23;15.20;99.90
17587;DHT22;8912;52.336;17.172;2022-09-21T09:24:02;15.20;99.90
17587;DHT22;8912;52.336;17.172;2022-09-21T09:26:35;14.80;99.90
17587;DHT22;8912;52.336;17.172;2022-09-21T09:29:15;14.80;99.90
17587;DHT22;8912;52.336;17.172;2022-09-21T09:31:47;14.70;99.90
17587;DHT22;8912;52.336;17.172;2022-09-21T09:34:20;14.80;99.90
17587;DHT22;8912;52.336;17.172;2022-09-21T09:36:58;15.00;99.90
17587;DHT22;8912;52.336;17.172;2022-09-21T09:39:28;15.10;99.90
17587;DHT22;8912;52.336;17.172;2022-09-21T09:42:27;15.10;99.90
17587;DHT22;8912;52.336;17.172;2022-09-21T09:45:28;15.30;99.90
17587;DHT22;8912;52.336;17.172;2022-09-21T09:48:23;15.20;99.90
17587;DHT22;8912;52.336;17.172;2022-09-21T09:50:56;15.30;99.90
17587;DHT22;8912;52.336;17.172;2022-09-21T09:53:27;15.60;99.90
17587;DHT22;8912;52.336;17.172;2022-09-21T09:55:57;15.80;99.90
17587;DHT22;8912;52.336;17.172;2022-09-21T09:58:35;15.70;99.90
17587;DHT22;8912;52.336;17.172;2022-09-21T10:01:04;15.70;99.90
17587;DHT22;8912;52.336;17.172;2022-09-21T10:03:34;15.60;99.90
17587;DHT22;8912;52.336;17.172;2022-09-21T10:06:03;15.80;99.90
17587;DHT22;8912;52.336;17.172;2022-09-21T10:08:42;16.20;99.90
17587;DHT22;8912;52.336;17.172;2022-09-21T10:11:12;15.70;99.90
17587;DHT22;8912;52.336;17.172;2022-09-21T10:13:42;15.80;99.90
17587;DHT22;8912;52.336;17.172;2022-09-21T10:16:14;15.80;99.90
17587;DHT22;8912;52.336;17.172;2022-09-21T10:18:49;15.80;99.90
17587;DHT22;8912;52.336;17.172;2022-09-21T10:21:21;15.90;99.90
17587;DHT22;8912;52.336;17.172;2022-09-21T10:23:58;15.70;99.90
17587;DHT22;8912;52.336;17.172;2022-09-21T10:26:31;15.70;99.90
17587;DHT22;8912;52.336;17.172;2022-09-21T10:29:16;15.70;99.90
17587;DHT22;8912;52.336;17.172;2022-09-21T10:31:56;15.70;99.90
17587;DHT22;8912;52.336;17.172;2022-09-21T10:34:26;15.30;99.90
17587;DHT22;8912;52.336;17.172;2022-09-21T10:36:57;14.80;99.90
17587;DHT22;8912;52.336;17.172;2022-09-21T10:39:29;14.40;99.90
17587;DHT22;8912;52.336;17.172;2022-09-21T10:42:00;14.00;99.90
17587;DHT22;8912;52.336;17.172;2022-09-21T10:44:39;13.90;99.90
17587;DHT22;8912;52.336;17.172;2022-09-21T10:47:20;14.20;99.90
17587;DHT22;8912;52.336;17.172;2022-09-21T10:49:52;14.50;99.90
17587;DHT22;8912;52.336;17.172;2022-09-21T10:52:23;14.70;99.90
17587;DHT22;8912;52.336;17.172;2022-09-21T10:54:55;14.80;99.90
17587;DHT22;8912;52.336;17.172;2022-09-21T10:57:25;15.10;99.90
17587;DHT22;8912;52.336;17.172;2022-09-21T10:59:55;15.40;99.90
17587;DHT22;8912;52.336;17.172;2022-09-21T11:02:33;15.40;99.90
17587;DHT22;8912;52.336;17.172;2022-09-21T11:05:09;15.70;99.90
17587;DHT22;8912;52.336;17.172;2022-09-21T11:07:44;15.90;99.90
17587;DHT22;8912;52.336;17.172;2022-09-21T11:10:20;15.80;99.90
17587;DHT22;8912;52.336;17.172;2022-09-21T11:13:01;15.90;99.90
17587;DHT22;8912;52.336;17.172;2022-09-21T11:15:40;15.80;99.90
17587;DHT22;8912;52.336;17.172;2022-09-21T11:18:18;15.10;99.90
17587;DHT22;8912;52.336;17.172;2022-09-21T11:20:51;15.00;99.90
17587;DHT22;8912;52.336;17.172;2022-09-21T11:23:39;15.10;99.90
17587;DHT22;8912;52.336;17.172;2022-09-21T11:26:17;14.80;99.90
17587;DHT22;8912;52.336;17.172;2022-09-21T11:28:51;14.70;99.90
17587;DHT22;8912;52.336;17.172;2022-09-21T11:31:43;14.60;99.90
17587;DHT22;8912;52.336;17.172;2022-09-21T11:34:39;14.80;99.90
17587;DHT22;8912;52.336;17.172;2022-09-21T11:37:16;14.80;99.90
17587;DHT22;8912;52.336;17.172;2022-09-21T11:39:59;14.00;99.90
17587;DHT22;8912;52.336;17.172;2022-09-21T11:42:45;13.40;99.90
17587;DHT22;8912;52.336;17.172;2022-09-21T11:45:32;13.00;99.90
17587;DHT22;8912;52.336;17.172;2022-09-21T11:48:11;12.80;99.90
17587;DHT22;8912;52.336;17.172;2022-09-21T11:50:51;12.80;99.90
17587;DHT22;8912;52.336;17.172;2022-09-21T11:53:29;12.80;99.90
17587;DHT22;8912;52.336;17.172;2022-09-21T11:58:55;13.30;99.90
17587;DHT22;8912;52.336;17.172;2022-09-21T12:01:40;13.60;99.90
17587;DHT22;8912;52.336;17.172;2022-09-21T12:04:22;13.70;99.90
17587;DHT22;8912;52.336;17.172;2022-09-21T12:07:06;13.90;99.90
17587;DHT22;8912;52.336;17.172;2022-09-21T12:09:58;14.00;99.90
17587;DHT22;8912;52.336;17.172;2022-09-21T12:12:42;14.40;99.90
17587;DHT22;8912;52.336;17.172;2022-09-21T12:15:20;14.50;99.90
17587;DHT22;8912;52.336;17.172;2022-09-21T12:17:58;14.60;99.90
17587;DHT22;8912;52.336;17.172;2022-09-21T12:20:37;14.50;99.90
17587;DHT22;8912;52.336;17.172;2022-09-21T12:23:14;14.50;99.90
17587;DHT22;8912;52.336;17.172;2022-09-21T12:25:48;14.70;99.90
17587;DHT22;8912;52.336;17.172;2022-09-21T12:28:22;15.00;99.90
17587;DHT22;8912;52.336;17.172;2022-09-21T12:30:56;15.20;99.90
17587;DHT22;8912;52.336;17.172;2022-09-21T12:33:33;15.10;99.90
17587;DHT22;8912;52.336;17.172;2022-09-21T12:36:10;15.10;99.90
17587;DHT22;8912;52.336;17.172;2022-09-21T12:38:45;15.20;99.90
17587;DHT22;8912;52.336;17.172;2022-09-21T12:41:20;15.30;99.90
17587;DHT22;8912;52.336;17.172;2022-09-21T12:43:55;15.20;99.90
17587;DHT22;8912;52.336;17.172;2022-09-21T12:46:30;15.20;99.90
17587;DHT22;8912;52.336;17.172;2022-09-21T12:49:01;15.10;99.90
17587;DHT22;8912;52.336;17.172;2022-09-21T12:51:40;14.90;99.90
17587;DHT22;8912;52.336;17.172;2022-09-21T12:54:18;14.80;99.90
17587;DHT22;8912;52.336;17.172;2022-09-21T12:56:55;15.00;99.90
17587;DHT22;8912;52.336;17.172;2022-09-21T12:59:39;15.40;99.90
17587;DHT22;8912;52.336;17.172;2022-09-21T13:02:18;15.40;99.90
17587;DHT22;8912;52.336;17.172;2022-09-21T13:04:57;15.60;99.90
17587;DHT22;8912;52.336;17.172;2022-09-21T13:07:41;15.60;99.90
17587;DHT22;8912;52.336;17.172;2022-09-21T13:10:18;15.70;99.90
17587;DHT22;8912;52.336;17.172;2022-09-21T13:12:53;15.80;99.90
17587;DHT22;8912;52.336;17.172;2022-09-21T13:15:25;15.90;99.90
17587;DHT22;8912;52.336;17.172;2022-09-21T13:18:01;16.00;99.90
17587;DHT22;8912;52.336;17.172;2022-09-21T13:20:35;15.70;99.90
17587;DHT22;8912;52.336;17.172;2022-09-21T13:23:14;15.50;99.90
17587;DHT22;8912;52.336;17.172;2022-09-21T13:25:47;15.70;99.90
17587;DHT22;8912;52.336;17.172;2022-09-21T13:28:19;15.80;99.90
17587;DHT22;8912;52.336;17.172;2022-09-21T13:34:21;16.20;99.90
17587;DHT22;8912;52.336;17.172;2022-09-21T13:43:21;15.50;99.90
17587;DHT22;8912;52.336;17.172;2022-09-21T13:45:53;13.90;99.90
17587;DHT22;8912;52.336;17.172;2022-09-21T13:48:25;13.50;99.90
17587;DHT22;8912;52.336;17.172;2022-09-21T13:50:59;13.00;99.90
17587;DHT22;8912;52.336;17.172;2022-09-21T13:53:35;12.60;99.90
17587;DHT22;8912;52.336;17.172;2022-09-21T13:56:14;12.40;99.90
17587;DHT22;8912;52.336;17.172;2022-09-21T13:58:46;12.50;99.90
17587;DHT22;8912;52.336;17.172;2022-09-21T14:01:17;12.70;99.90
17587;DHT22;8912;52.336;17.172;2022-09-21T14:04:18;12.80;99.90
17587;DHT22;8912;52.336;17.172;2022-09-21T14:06:50;12.90;99.90
17587;DHT22;8912;52.336;17.172;2022-09-21T14:09:23;13.00;99.90
17587;DHT22;8912;52.336;17.172;2022-09-21T14:11:56;13.20;99.90
17587;DHT22;8912;52.336;17.172;2022-09-21T14:14:29;13.30;99.90
17587;DHT22;8912;52.336;17.172;2022-09-21T14:17:00;13.30;99.90
17587;DHT22;8912;52.336;17.172;2022-09-21T14:20:03;13.30;99.90
17587;DHT22;8912;52.336;17.172;2022-09-21T14:22:44;13.30;99.90
17587;DHT22;8912;52.336;17.172;2022-09-21T14:25:28;13.20;99.90
17587;DHT22;8912;52.336;17.172;2022-09-21T14:28:02;13.20;99.90
17587;DHT22;8912;52.336;17.172;2022-09-21T14:30:34;13.10;99.90
17587;DHT22;8912;52.336;17.172;2022-09-21T14:36:00;13.50;99.90
17587;DHT22;8912;52.336;17.172;2022-09-21T14:38:42;13.80;99.90
17587;DHT22;8912;52.336;17.172;2022-09-21T14:41:22;14.20;99.90
17587;DHT22;8912;52.336;17.172;2022-09-21T14:43:53;14.40;99.90
17587;DHT22;8912;52.336;17.172;2022-09-21T14:46:39;14.40;99.90
17587;DHT22;8912;52.336;17.172;2022-09-21T14:49:28;14.30;99.90
17587;DHT22;8912;52.336;17.172;2022-09-21T14:52:06;14.20;99.90
17587;DHT22;8912;52.336;17.172;2022-09-21T14:55:00;14.30;99.90
17587;DHT22;8912;52.336;17.172;2022-09-21T15:00:42;14.60;99.90
17587;DHT22;8912;52.336;17.172;2022-09-21T15:06:17;14.80;99.90
17587;DHT22;8912;52.336;17.172;2022-09-21T15:09:23;14.80;99.90
17587;DHT22;8912;52.336;17.172;2022-09-21T15:12:17;14.90;99.90
17587;DHT22;8912;52.336;17.172;2022-09-21T15:14:54;14.90;99.90
17587;DHT22;8912;52.336;17.172;2022-09-21T15:17:24;14.90;99.90
17587;DHT22;8912;52.336;17.172;2022-09-21T15:19:56;14.90;99.90
17587;DHT22;8912;52.336;17.172;2022-09-21T15:22:27;15.00;99.90
17587;DHT22;8912;52.336;17.172;2022-09-21T15:24:57;15.00;99.90
17587;DHT22;8912;52.336;17.172;2022-09-21T15:27:28;14.90;99.90
17587;DHT22;8912;52.336;17.172;2022-09-21T15:30:02;14.90;99.90
17587;DHT22;8912;52.336;17.172;2022-09-21T15:32:35;14.80;99.90
17587;DHT22;8912;52.336;17.172;2022-09-21T15:35:11;14.70;99.90
17587;DHT22;8912;52.336;17.172;2022-09-21T15:37:43;14.60;99.90
17587;DHT22;8912;52.336;17.172;2022-09-21T15:40:18;14.60;99.90
17587;DHT22;8912;52.336;17.172;2022-09-21T15:43:01;14.70;99.90
17587;DHT22;8912;52.336;17.172;2022-09-21T15:45:33;14.80;99.90
17587;DHT22;8912;52.336;17.172;2022-09-21T15:48:06;14.80;99.90
17587;DHT22;8912;52.336;17.172;2022-09-21T15:50:40;14.80;99.90
17587;DHT22;8912;52.336;17.172;2022-09-21T15:53:16;14.80;99.90
17587;DHT22;8912;52.336;17.172;2022-09-21T15:55:46;14.80;99.90
17587;DHT22;8912;52.336;17.172;2022-09-21T15:58:29;14.50;99.90
17587;DHT22;8912;52.336;17.172;2022-09-21T16:01:09;14.40;99.90
17587;DHT22;8912;52.336;17.172;2022-09-21T16:03:39;14.30;99.90
17587;DHT22;8912;52.336;17.172;2022-09-21T16:06:27;14.20;99.90
17587;DHT22;8912;52.336;17.172;2022-09-21T16:08:56;14.00;99.90
17587;DHT22;8912;52.336;17.172;2022-09-21T16:11:33;13.90;99.90
17587;DHT22;8912;52.336;17.172;2022-09-21T16:14:10;13.70;99.90
17587;DHT22;8912;52.336;17.172;2022-09-21T16:17:05;13.60;99.90
17587;DHT22;8912;52.336;17.172;2022-09-21T16:19:39;13.50;99.90
17587;DHT22;8912;52.336;17.172;2022-09-21T16:22:10;13.40;99.90
17587;DHT22;8912;52.336;17.172;2022-09-21T16:24:43;13.30;99.90
17587;DHT22;8912;52.336;17.172;2022-09-21T16:27:16;13.20;99.90
17587;DHT22;8912;52.336;17.172;2022-09-21T16:29:47;13.10;99.90
17587;DHT22;8912;52.336;17.172;2022-09-21T16:32:20;13.00;99.90
17587;DHT22;8912;52.336;17.172;2022-09-21T16:35:21;12.90;99.90
17587;DHT22;8912;52.336;17.172;2022-09-21T16:37:54;12.80;99.90
17587;DHT22;8912;52.336;17.172;2022-09-21T16:40:25;12.60;99.90
17587;DHT22;8912;52.336;17.172;2022-09-21T16:42:54;12.50;99.90